sensor_id;sensor_type;location;lat;lon;timestamp;pressure;altitude;pressure_sealevel;temperature;humidity
68329;BME280;55182;56.864;60.554;2023-03-16T00:00:45;76603.03;;;-143.60;63.46
68329;BME280;55182;56.864;60.554;2023-03-16T00:03:11;76605.03;;;-143.60;63.36
68329;BME280;55182;56.864;60.554;2023-03-16T00:05:37;76590.97;;;-143.60;63.57
68329;BME280;55182;56.864;60.554;2023-03-16T00:08:03;76617.09;;;-143.60;63.91
68329;BME280;55182;56.864;60.554;2023-03-16T00:10:28;76623.13;;;-143.60;63.91
68329;BME280;55182;56.864;60.554;2023-03-16T00:12:54;76627.13;;;-143.60;63.86
68329;BME280;55182;56.864;60.554;2023-03-16T00:15:20;76613.06;;;-143.60;63.75
68329;BME280;55182;56.864;60.554;2023-03-16T00:17:45;76613.06;;;-143.60;63.78
68329;BME280;55182;56.864;60.554;2023-03-16T00:20:11;76615.09;;;-143.60;63.89
68329;BME280;55182;56.864;60.554;2023-03-16T00:22:37;76621.13;;;-143.60;63.94
68329;BME280;55182;56.864;60.554;2023-03-16T00:25:02;76621.13;;;-143.60;63.73
68329;BME280;55182;56.864;60.554;2023-03-16T00:27:28;76621.13;;;-143.60;63.95
68329;BME280;55182;56.864;60.554;2023-03-16T00:29:53;76629.16;;;-143.60;63.85
68329;BME280;55182;56.864;60.554;2023-03-16T00:32:19;76621.13;;;-143.60;63.83
68329;BME280;55182;56.864;60.554;2023-03-16T00:34:47;76619.09;;;-143.60;63.73
68329;BME280;55182;56.864;60.554;2023-03-16T00:37:13;76619.09;;;-143.60;63.80
68329;BME280;55182;56.864;60.554;2023-03-16T00:39:42;76617.09;;;-143.60;63.84
68329;BME280;55182;56.864;60.554;2023-03-16T00:42:12;76617.09;;;-143.60;63.94
68329;BME280;55182;56.864;60.554;2023-03-16T00:44:37;76627.13;;;-143.60;63.83
68329;BME280;55182;56.864;60.554;2023-03-16T00:47:03;76633.16;;;-143.60;63.76
68329;BME280;55182;56.864;60.554;2023-03-16T00:49:29;76625.13;;;-143.60;63.93
68329;BME280;55182;56.864;60.554;2023-03-16T00:51:55;76641.22;;;-143.60;63.60
68329;BME280;55182;56.864;60.554;2023-03-16T00:54:20;76629.16;;;-143.60;64.01
68329;BME280;55182;56.864;60.554;2023-03-16T00:56:46;76633.16;;;-143.60;63.91
68329;BME280;55182;56.864;60.554;2023-03-16T00:59:11;76637.19;;;-143.60;64.05
68329;BME280;55182;56.864;60.554;2023-03-16T01:01:37;76631.16;;;-143.60;64.04
68329;BME280;55182;56.864;60.554;2023-03-16T01:04:02;76629.16;;;-143.60;64.00
68329;BME280;55182;56.864;60.554;2023-03-16T01:06:28;76629.16;;;-143.60;64.09
68329;BME280;55182;56.864;60.554;2023-03-16T01:08:54;76631.16;;;-143.60;64.25
68329;BME280;55182;56.864;60.554;2023-03-16T01:11:20;76627.13;;;-143.60;64.18
68329;BME280;55182;56.864;60.554;2023-03-16T01:13:47;76639.19;;;-143.60;64.10
68329;BME280;55182;56.864;60.554;2023-03-16T01:16:13;76625.13;;;-143.60;64.01
68329;BME280;55182;56.864;60.554;2023-03-16T01:18:39;76619.09;;;-143.60;63.86
68329;BME280;55182;56.864;60.554;2023-03-16T01:21:05;76623.13;;;-143.60;64.07
68329;BME280;55182;56.864;60.554;2023-03-16T01:23:32;76621.13;;;-143.60;64.08
68329;BME280;55182;56.864;60.554;2023-03-16T01:25:58;76633.16;;;-143.60;64.13
68329;BME280;55182;56.864;60.554;2023-03-16T01:28:25;76633.16;;;-143.60;64.31
68329;BME280;55182;56.864;60.554;2023-03-16T01:30:51;76635.19;;;-143.60;64.35
68329;BME280;55182;56.864;60.554;2023-03-16T01:33:16;76641.22;;;-143.60;64.62
68329;BME280;55182;56.864;60.554;2023-03-16T01:35:42;76651.25;;;-143.60;64.88
68329;BME280;55182;56.864;60.554;2023-03-16T01:38:15;76659.28;;;-143.60;65.13
68329;BME280;55182;56.864;60.554;2023-03-16T01:40:41;76669.34;;;-143.60;64.79
68329;BME280;55182;56.864;60.554;2023-03-16T01:43:09;76671.34;;;-143.60;65.05
68329;BME280;55182;56.864;60.554;2023-03-16T01:48:20;76673.38;;;-143.60;65.18
68329;BME280;55182;56.864;60.554;2023-03-16T01:50:48;76673.38;;;-143.60;65.00
68329;BME280;55182;56.864;60.554;2023-03-16T01:53:14;76683.41;;;-143.60;65.12
68329;BME280;55182;56.864;60.554;2023-03-16T01:55:39;76679.41;;;-143.60;64.98
68329;BME280;55182;56.864;60.554;2023-03-16T01:58:05;76683.41;;;-143.60;64.92
68329;BME280;55182;56.864;60.554;2023-03-16T02:00:32;76687.44;;;-143.60;65.15
68329;BME280;55182;56.864;60.554;2023-03-16T02:03:07;76689.44;;;-143.60;65.38
68329;BME280;55182;56.864;60.554;2023-03-16T02:08:14;76703.50;;;-143.60;65.64
68329;BME280;55182;56.864;60.554;2023-03-16T02:10:41;76713.56;;;-143.60;65.79
68329;BME280;55182;56.864;60.554;2023-03-16T02:13:06;76717.56;;;-143.60;65.96
68329;BME280;55182;56.864;60.554;2023-03-16T02:15:32;76729.63;;;-143.60;66.31
68329;BME280;55182;56.864;60.554;2023-03-16T02:17:58;76721.59;;;-143.60;66.26
68329;BME280;55182;56.864;60.554;2023-03-16T02:23:05;76743.72;;;-143.60;66.76
68329;BME280;55182;56.864;60.554;2023-03-16T02:28:21;76753.75;;;-143.60;66.96
68329;BME280;55182;56.864;60.554;2023-03-16T02:30:50;76749.75;;;-143.60;66.89
68329;BME280;55182;56.864;60.554;2023-03-16T02:33:17;76745.72;;;-143.60;66.80
68329;BME280;55182;56.864;60.554;2023-03-16T02:35:43;76733.66;;;-143.60;66.64
68329;BME280;55182;56.864;60.554;2023-03-16T02:38:09;76737.69;;;-143.60;66.22
68329;BME280;55182;56.864;60.554;2023-03-16T02:40:41;76725.63;;;-143.60;66.24
68329;BME280;55182;56.864;60.554;2023-03-16T02:43:13;76723.59;;;-143.60;66.22
68329;BME280;55182;56.864;60.554;2023-03-16T02:45:49;76719.59;;;-143.60;66.25
68329;BME280;55182;56.864;60.554;2023-03-16T02:48:17;76729.63;;;-143.60;66.15
68329;BME280;55182;56.864;60.554;2023-03-16T02:50:48;76715.56;;;-143.60;66.08
68329;BME280;55182;56.864;60.554;2023-03-16T02:53:16;76723.59;;;-143.60;65.95
68329;BME280;55182;56.864;60.554;2023-03-16T02:55:42;76725.63;;;-143.60;65.95
68329;BME280;55182;56.864;60.554;2023-03-16T02:58:07;76729.63;;;-143.60;66.12
68329;BME280;55182;56.864;60.554;2023-03-16T03:00:33;76725.63;;;-143.60;65.99
68329;BME280;55182;56.864;60.554;2023-03-16T03:02:58;76733.66;;;-143.60;66.01
68329;BME280;55182;56.864;60.554;2023-03-16T03:05:24;76725.63;;;-143.60;66.08
68329;BME280;55182;56.864;60.554;2023-03-16T03:07:50;76725.63;;;-143.60;66.12
68329;BME280;55182;56.864;60.554;2023-03-16T03:10:15;76719.59;;;-143.60;65.74
68329;BME280;55182;56.864;60.554;2023-03-16T03:12:41;76717.56;;;-143.60;65.79
68329;BME280;55182;56.864;60.554;2023-03-16T03:15:09;76721.59;;;-143.60;65.89
68329;BME280;55182;56.864;60.554;2023-03-16T03:17:54;76721.59;;;-143.60;65.92
68329;BME280;55182;56.864;60.554;2023-03-16T03:20:20;76729.63;;;-143.60;65.76
68329;BME280;55182;56.864;60.554;2023-03-16T03:22:47;76727.63;;;-143.60;65.78
68329;BME280;55182;56.864;60.554;2023-03-16T03:25:13;76737.69;;;-143.60;65.83
68329;BME280;55182;56.864;60.554;2023-03-16T03:27:39;76733.66;;;-143.60;65.89
68329;BME280;55182;56.864;60.554;2023-03-16T03:30:08;76729.63;;;-143.60;65.62
68329;BME280;55182;56.864;60.554;2023-03-16T03:32:34;76733.66;;;-143.60;65.65
68329;BME280;55182;56.864;60.554;2023-03-16T03:35:00;76733.66;;;-143.60;65.48
68329;BME280;55182;56.864;60.554;2023-03-16T03:37:26;76731.66;;;-143.60;65.45
68329;BME280;55182;56.864;60.554;2023-03-16T03:39:52;76741.69;;;-143.60;65.62
68329;BME280;55182;56.864;60.554;2023-03-16T03:42:17;76741.69;;;-143.60;65.62
68329;BME280;55182;56.864;60.554;2023-03-16T03:44:43;76741.69;;;-143.60;65.56
68329;BME280;55182;56.864;60.554;2023-03-16T03:47:09;76731.66;;;-143.60;65.35
68329;BME280;55182;56.864;60.554;2023-03-16T03:49:34;76737.69;;;-143.60;65.72
68329;BME280;55182;56.864;60.554;2023-03-16T03:52:00;76737.69;;;-143.60;65.32
68329;BME280;55182;56.864;60.554;2023-03-16T03:54:26;76735.66;;;-143.60;65.81
68329;BME280;55182;56.864;60.554;2023-03-16T03:56:56;76727.63;;;-143.60;65.13
68329;BME280;55182;56.864;60.554;2023-03-16T03:59:21;76715.56;;;-143.60;64.68
68329;BME280;55182;56.864;60.554;2023-03-16T04:02:10;76697.47;;;-143.60;64.60
68329;BME280;55182;56.864;60.554;2023-03-16T04:04:42;76699.50;;;-143.60;64.60
68329;BME280;55182;56.864;60.554;2023-03-16T04:07:10;76693.47;;;-143.60;64.40
68329;BME280;55182;56.864;60.554;2023-03-16T04:09:35;76689.44;;;-143.60;64.21
68329;BME280;55182;56.864;60.554;2023-03-16T04:12:02;76685.44;;;-143.60;64.26
68329;BME280;55182;56.864;60.554;2023-03-16T04:14:28;76669.34;;;-143.60;63.48
68329;BME280;55182;56.864;60.554;2023-03-16T04:16:53;76661.31;;;-143.60;63.25
68329;BME280;55182;56.864;60.554;2023-03-16T04:19:20;76655.28;;;-143.60;63.02
68329;BME280;55182;56.864;60.554;2023-03-16T04:21:45;76643.22;;;-143.60;62.67
68329;BME280;55182;56.864;60.554;2023-03-16T04:24:11;76633.16;;;-143.60;62.43
68329;BME280;55182;56.864;60.554;2023-03-16T04:26:36;76621.13;;;-143.60;62.23
68329;BME280;55182;56.864;60.554;2023-03-16T04:29:03;76617.09;;;-143.60;62.07
68329;BME280;55182;56.864;60.554;2023-03-16T04:31:29;76613.06;;;-143.60;61.82
68329;BME280;55182;56.864;60.554;2023-03-16T04:33:55;76601.00;;;-143.60;61.88
68329;BME280;55182;56.864;60.554;2023-03-16T04:36:22;76592.97;;;-143.60;61.53
68329;BME280;55182;56.864;60.554;2023-03-16T04:38:48;76590.97;;;-143.60;61.28
68329;BME280;55182;56.864;60.554;2023-03-16T04:41:14;76562.84;;;-143.60;60.57
68329;BME280;55182;56.864;60.554;2023-03-16T04:43:52;76560.81;;;-143.60;60.37
68329;BME280;55182;56.864;60.554;2023-03-16T04:46:22;76558.81;;;-143.60;60.40
68329;BME280;55182;56.864;60.554;2023-03-16T04:48:48;76542.72;;;-143.60;59.53
68329;BME280;55182;56.864;60.554;2023-03-16T04:51:14;76544.75;;;-143.60;59.34
68329;BME280;55182;56.864;60.554;2023-03-16T04:53:46;76520.63;;;-143.60;59.25
68329;BME280;55182;56.864;60.554;2023-03-16T04:56:19;76520.63;;;-143.60;59.19
68329;BME280;55182;56.864;60.554;2023-03-16T04:58:50;76520.63;;;-143.60;59.19
68329;BME280;55182;56.864;60.554;2023-03-16T05:01:18;76512.59;;;-143.60;59.13
68329;BME280;55182;56.864;60.554;2023-03-16T05:03:44;76510.59;;;-143.60;58.86
68329;BME280;55182;56.864;60.554;2023-03-16T05:06:10;76512.59;;;-143.60;59.36
68329;BME280;55182;56.864;60.554;2023-03-16T05:08:36;76504.56;;;-143.60;58.65
68329;BME280;55182;56.864;60.554;2023-03-16T05:11:02;76486.47;;;-143.60;58.44
68329;BME280;55182;56.864;60.554;2023-03-16T05:13:32;76482.44;;;-143.60;58.03
68329;BME280;55182;56.864;60.554;2023-03-16T05:15:58;76484.44;;;-143.60;57.74
68329;BME280;55182;56.864;60.554;2023-03-16T05:18:28;76472.41;;;-143.60;57.73
68329;BME280;55182;56.864;60.554;2023-03-16T05:20:54;76468.38;;;-143.60;57.70
68329;BME280;55182;56.864;60.554;2023-03-16T05:23:21;76456.31;;;-143.60;57.40
68329;BME280;55182;56.864;60.554;2023-03-16T05:25:52;76448.28;;;-143.60;56.82
68329;BME280;55182;56.864;60.554;2023-03-16T05:28:20;76440.25;;;-143.60;56.58
68329;BME280;55182;56.864;60.554;2023-03-16T05:30:53;76432.19;;;-143.60;56.36
68329;BME280;55182;56.864;60.554;2023-03-16T05:33:23;76424.16;;;-143.60;55.86
68329;BME280;55182;56.864;60.554;2023-03-16T05:35:55;76416.13;;;-143.60;55.89
68329;BME280;55182;56.864;60.554;2023-03-16T05:38:20;76412.09;;;-143.60;55.65
68329;BME280;55182;56.864;60.554;2023-03-16T05:40:47;76416.13;;;-143.60;55.67
68329;BME280;55182;56.864;60.554;2023-03-16T05:43:22;76396.03;;;-143.60;55.42
68329;BME280;55182;56.864;60.554;2023-03-16T05:45:51;76398.03;;;-143.60;55.06
68329;BME280;55182;56.864;60.554;2023-03-16T05:48:18;76400.06;;;-143.60;55.30
68329;BME280;55182;56.864;60.554;2023-03-16T05:50:47;76400.06;;;-143.60;54.92
68329;BME280;55182;56.864;60.554;2023-03-16T05:53:19;76398.03;;;-143.60;54.53
68329;BME280;55182;56.864;60.554;2023-03-16T05:55:52;76394.03;;;-143.60;54.35
68329;BME280;55182;56.864;60.554;2023-03-16T05:58:18;76383.97;;;-143.60;54.26
68329;BME280;55182;56.864;60.554;2023-03-16T06:00:45;76379.94;;;-143.60;53.97
68329;BME280;55182;56.864;60.554;2023-03-16T06:03:21;76383.97;;;-143.60;54.17
68329;BME280;55182;56.864;60.554;2023-03-16T06:05:48;76377.94;;;-143.60;53.73
68329;BME280;55182;56.864;60.554;2023-03-16T06:08:18;76371.91;;;-143.60;54.04
68329;BME280;55182;56.864;60.554;2023-03-16T06:10:46;76367.91;;;-143.60;53.06
68329;BME280;55182;56.864;60.554;2023-03-16T06:13:15;76357.84;;;-143.60;52.91
68329;BME280;55182;56.864;60.554;2023-03-16T06:15:40;76347.81;;;-143.60;52.67
68329;BME280;55182;56.864;60.554;2023-03-16T06:18:06;76339.75;;;-143.60;52.56
68329;BME280;55182;56.864;60.554;2023-03-16T06:20:32;76329.72;;;-143.60;51.66
68329;BME280;55182;56.864;60.554;2023-03-16T06:22:58;76317.66;;;-143.60;51.51
68329;BME280;55182;56.864;60.554;2023-03-16T06:25:25;76315.66;;;-143.60;51.53
68329;BME280;55182;56.864;60.554;2023-03-16T06:27:50;76309.63;;;-143.60;50.72
68329;BME280;55182;56.864;60.554;2023-03-16T06:30:16;76299.56;;;-143.60;50.66
68329;BME280;55182;56.864;60.554;2023-03-16T06:32:42;76289.53;;;-143.60;50.11
68329;BME280;55182;56.864;60.554;2023-03-16T06:35:09;76279.47;;;-143.60;49.72
68329;BME280;55182;56.864;60.554;2023-03-16T06:37:38;76263.41;;;-143.60;48.94
68329;BME280;55182;56.864;60.554;2023-03-16T06:40:18;76249.34;;;-143.60;48.59
68329;BME280;55182;56.864;60.554;2023-03-16T06:42:43;76237.28;;;-143.60;47.61
68329;BME280;55182;56.864;60.554;2023-03-16T06:45:12;76211.16;;;-143.60;47.79
68329;BME280;55182;56.864;60.554;2023-03-16T06:47:38;76207.13;;;-143.60;45.85
68329;BME280;55182;56.864;60.554;2023-03-16T06:50:05;76199.09;;;-143.60;45.75
68329;BME280;55182;56.864;60.554;2023-03-16T06:52:30;76195.06;;;-143.60;46.27
68329;BME280;55182;56.864;60.554;2023-03-16T06:54:56;76183.03;;;-143.60;46.07
68329;BME280;55182;56.864;60.554;2023-03-16T06:57:22;76183.03;;;-143.60;46.13
68329;BME280;55182;56.864;60.554;2023-03-16T06:59:48;76183.03;;;-143.60;46.18
68329;BME280;55182;56.864;60.554;2023-03-16T07:02:15;76162.91;;;-143.60;46.88
68329;BME280;55182;56.864;60.554;2023-03-16T07:04:40;76160.91;;;-143.60;45.36
68329;BME280;55182;56.864;60.554;2023-03-16T07:07:06;76150.88;;;-143.60;45.15
68329;BME280;55182;56.864;60.554;2023-03-16T07:09:32;76144.84;;;-143.60;44.59
68329;BME280;55182;56.864;60.554;2023-03-16T07:11:58;76146.84;;;-143.60;44.54
68329;BME280;55182;56.864;60.554;2023-03-16T07:14:23;76142.81;;;-143.60;44.21
68329;BME280;55182;56.864;60.554;2023-03-16T07:16:51;76130.78;;;-143.60;44.27
68329;BME280;55182;56.864;60.554;2023-03-16T07:19:16;76126.75;;;-143.60;43.54
68329;BME280;55182;56.864;60.554;2023-03-16T07:21:42;76118.72;;;-143.60;43.47
68329;BME280;55182;56.864;60.554;2023-03-16T07:24:12;76104.66;;;-143.60;44.41
68329;BME280;55182;56.864;60.554;2023-03-16T07:26:39;76098.63;;;-143.60;43.19
68329;BME280;55182;56.864;60.554;2023-03-16T07:29:06;76092.59;;;-143.60;42.31
68329;BME280;55182;56.864;60.554;2023-03-16T07:31:33;76080.53;;;-143.60;42.78
68329;BME280;55182;56.864;60.554;2023-03-16T07:34:02;76076.50;;;-143.60;41.98
68329;BME280;55182;56.864;60.554;2023-03-16T07:36:42;76062.44;;;-143.60;40.94
68329;BME280;55182;56.864;60.554;2023-03-16T07:39:09;76058.44;;;-143.60;41.69
68329;BME280;55182;56.864;60.554;2023-03-16T07:41:34;76046.38;;;-143.60;41.17
68329;BME280;55182;56.864;60.554;2023-03-16T07:44:20;76028.28;;;-143.60;41.54
68329;BME280;55182;56.864;60.554;2023-03-16T07:46:47;76018.25;;;-143.60;41.00
68329;BME280;55182;56.864;60.554;2023-03-16T07:49:14;76012.22;;;-143.60;40.71
68329;BME280;55182;56.864;60.554;2023-03-16T07:51:39;76002.16;;;-143.60;40.71
68329;BME280;55182;56.864;60.554;2023-03-16T07:54:06;75988.09;;;-143.60;40.30
68329;BME280;55182;56.864;60.554;2023-03-16T07:56:33;75986.09;;;-143.60;40.73
68329;BME280;55182;56.864;60.554;2023-03-16T07:59:02;75982.06;;;-143.60;40.55
68329;BME280;55182;56.864;60.554;2023-03-16T08:01:29;75978.06;;;-143.60;40.59
68329;BME280;55182;56.864;60.554;2023-03-16T08:03:55;75982.06;;;-143.60;39.88
68329;BME280;55182;56.864;60.554;2023-03-16T08:06:21;75988.09;;;-143.60;40.09
68329;BME280;55182;56.864;60.554;2023-03-16T08:08:47;75982.06;;;-143.60;39.98
68329;BME280;55182;56.864;60.554;2023-03-16T08:11:29;75982.06;;;-143.60;39.72
68329;BME280;55182;56.864;60.554;2023-03-16T08:13:59;75970.00;;;-143.60;39.56
68329;BME280;55182;56.864;60.554;2023-03-16T08:16:38;75957.97;;;-143.60;39.46
68329;BME280;55182;56.864;60.554;2023-03-16T08:19:05;75949.91;;;-143.60;39.40
68329;BME280;55182;56.864;60.554;2023-03-16T08:21:30;75945.91;;;-143.60;39.44
68329;BME280;55182;56.864;60.554;2023-03-16T08:23:56;75943.91;;;-143.60;38.65
68329;BME280;55182;56.864;60.554;2023-03-16T08:26:22;75919.78;;;-143.60;38.36
68329;BME280;55182;56.864;60.554;2023-03-16T08:28:52;75905.72;;;-143.60;38.49
68329;BME280;55182;56.864;60.554;2023-03-16T08:31:19;75889.63;;;-143.60;40.11
68329;BME280;55182;56.864;60.554;2023-03-16T08:33:53;75873.56;;;-143.60;37.32
68329;BME280;55182;56.864;60.554;2023-03-16T08:36:23;75865.53;;;-143.60;36.72
68329;BME280;55182;56.864;60.554;2023-03-16T08:38:52;75859.50;;;-143.60;37.30
68329;BME280;55182;56.864;60.554;2023-03-16T08:41:17;75851.47;;;-143.60;36.69
68329;BME280;55182;56.864;60.554;2023-03-16T08:43:46;75841.41;;;-143.60;36.63
68329;BME280;55182;56.864;60.554;2023-03-16T08:46:12;75833.38;;;-143.60;36.20
68329;BME280;55182;56.864;60.554;2023-03-16T08:48:53;75825.34;;;-143.60;36.32
68329;BME280;55182;56.864;60.554;2023-03-16T08:51:19;75817.31;;;-143.60;35.76
68329;BME280;55182;56.864;60.554;2023-03-16T08:53:44;75809.25;;;-143.60;35.25
68329;BME280;55182;56.864;60.554;2023-03-16T08:56:11;75803.25;;;-143.60;35.75
68329;BME280;55182;56.864;60.554;2023-03-16T08:58:36;75773.09;;;-143.60;35.04
68329;BME280;55182;56.864;60.554;2023-03-16T09:01:03;75765.06;;;-143.60;34.97
68329;BME280;55182;56.864;60.554;2023-03-16T09:03:29;75751.00;;;-143.60;34.62
68329;BME280;55182;56.864;60.554;2023-03-16T09:05:59;75732.91;;;-143.60;34.36
68329;BME280;55182;56.864;60.554;2023-03-16T09:08:25;75728.91;;;-143.60;34.13
68329;BME280;55182;56.864;60.554;2023-03-16T09:10:57;75736.94;;;-143.60;33.70
68329;BME280;55182;56.864;60.554;2023-03-16T09:13:23;75714.84;;;-143.60;34.09
68329;BME280;55182;56.864;60.554;2023-03-16T09:15:49;75704.78;;;-143.60;33.28
68329;BME280;55182;56.864;60.554;2023-03-16T09:18:14;75694.75;;;-143.60;33.99
68329;BME280;55182;56.864;60.554;2023-03-16T09:20:40;75688.72;;;-143.60;33.37
68329;BME280;55182;56.864;60.554;2023-03-16T09:23:05;75680.69;;;-143.60;33.95
68329;BME280;55182;56.864;60.554;2023-03-16T09:25:31;75672.63;;;-143.60;33.63
68329;BME280;55182;56.864;60.554;2023-03-16T09:27:56;75664.59;;;-143.60;34.18
68329;BME280;55182;56.864;60.554;2023-03-16T09:30:22;75668.63;;;-143.60;32.48
68329;BME280;55182;56.864;60.554;2023-03-16T09:32:48;75664.59;;;-143.60;32.64
68329;BME280;55182;56.864;60.554;2023-03-16T09:35:13;75668.63;;;-143.60;33.94
68329;BME280;55182;56.864;60.554;2023-03-16T09:37:39;75688.72;;;-143.60;32.23
68329;BME280;55182;56.864;60.554;2023-03-16T09:40:04;75698.75;;;-143.60;32.12
68329;BME280;55182;56.864;60.554;2023-03-16T09:48:08;75722.88;;;-143.60;33.22
68329;BME280;55182;56.864;60.554;2023-03-16T09:50:38;75716.84;;;-143.60;33.40
68329;BME280;55182;56.864;60.554;2023-03-16T09:55:33;75736.94;;;-143.60;32.44
68329;BME280;55182;56.864;60.554;2023-03-16T09:58:00;75712.81;;;-143.60;32.12
68329;BME280;55182;56.864;60.554;2023-03-16T10:00:39;75698.75;;;-143.60;32.37
68329;BME280;55182;56.864;60.554;2023-03-16T10:05:31;75664.59;;;-143.60;32.62
68329;BME280;55182;56.864;60.554;2023-03-16T10:13:57;75636.47;;;-143.60;32.56
68329;BME280;55182;56.864;60.554;2023-03-16T10:15:57;75628.44;;;-143.60;31.82
68329;BME280;55182;56.864;60.554;2023-03-16T10:18:27;75642.50;;;-143.60;32.14
68329;BME280;55182;56.864;60.554;2023-03-16T10:20:53;75636.47;;;-143.60;32.84
68329;BME280;55182;56.864;60.554;2023-03-16T10:23:20;75646.53;;;-143.60;31.58
68329;BME280;55182;56.864;60.554;2023-03-16T10:25:46;75668.63;;;-143.60;32.23
68329;BME280;55182;56.864;60.554;2023-03-16T10:28:14;75672.63;;;-143.60;32.42
68329;BME280;55182;56.864;60.554;2023-03-16T10:30:40;75680.69;;;-143.60;32.60
68329;BME280;55182;56.864;60.554;2023-03-16T10:33:22;75692.72;;;-143.60;32.57
68329;BME280;55182;56.864;60.554;2023-03-16T10:35:57;75688.72;;;-143.60;32.93
68329;BME280;55182;56.864;60.554;2023-03-16T10:38:38;75704.78;;;-143.60;32.99
68329;BME280;55182;56.864;60.554;2023-03-16T10:43:43;75720.84;;;-143.60;33.74
68329;BME280;55182;56.864;60.554;2023-03-16T10:46:09;75738.94;;;-143.60;33.18
68329;BME280;55182;56.864;60.554;2023-03-16T10:48:34;75753.00;;;-143.60;33.87
68329;BME280;55182;56.864;60.554;2023-03-16T10:51:02;75757.03;;;-143.60;34.31
68329;BME280;55182;56.864;60.554;2023-03-16T10:53:29;75763.06;;;-143.60;34.51
68329;BME280;55182;56.864;60.554;2023-03-16T10:55:56;75763.06;;;-143.60;35.27
68329;BME280;55182;56.864;60.554;2023-03-16T10:58:23;75765.06;;;-143.60;35.04
68329;BME280;55182;56.864;60.554;2023-03-16T11:00:49;75765.06;;;-143.60;35.75
68329;BME280;55182;56.864;60.554;2023-03-16T11:03:24;75775.09;;;-143.60;36.03
68329;BME280;55182;56.864;60.554;2023-03-16T11:06:00;75783.16;;;-143.60;36.76
68329;BME280;55182;56.864;60.554;2023-03-16T11:08:27;75789.19;;;-143.60;36.69
68329;BME280;55182;56.864;60.554;2023-03-16T11:10:56;75803.25;;;-143.60;37.30
68329;BME280;55182;56.864;60.554;2023-03-16T11:13:23;75821.31;;;-143.60;37.35
68329;BME280;55182;56.864;60.554;2023-03-16T11:18:19;75837.41;;;-143.60;38.13
68329;BME280;55182;56.864;60.554;2023-03-16T11:20:47;75845.44;;;-143.60;38.12
68329;BME280;55182;56.864;60.554;2023-03-16T11:23:13;75853.47;;;-143.60;38.37
68329;BME280;55182;56.864;60.554;2023-03-16T11:25:42;75857.50;;;-143.60;38.71
68329;BME280;55182;56.864;60.554;2023-03-16T11:28:23;75875.56;;;-143.60;38.52
68329;BME280;55182;56.864;60.554;2023-03-16T11:33:17;75891.66;;;-143.60;38.49
68329;BME280;55182;56.864;60.554;2023-03-16T11:40:53;75929.81;;;-143.60;39.14
68329;BME280;55182;56.864;60.554;2023-03-16T11:48:34;75941.88;;;-143.60;39.54
68329;BME280;55182;56.864;60.554;2023-03-16T12:01:13;75964.00;;;-143.60;40.49
68329;BME280;55182;56.864;60.554;2023-03-16T12:06:32;75957.97;;;-143.60;40.79
68329;BME280;55182;56.864;60.554;2023-03-16T12:14:15;75959.97;;;-143.60;41.41
68329;BME280;55182;56.864;60.554;2023-03-16T12:16:51;75976.03;;;-143.60;42.16
68329;BME280;55182;56.864;60.554;2023-03-16T12:21:44;75984.09;;;-143.60;41.98
68329;BME280;55182;56.864;60.554;2023-03-16T12:24:20;75986.09;;;-143.60;42.32
68329;BME280;55182;56.864;60.554;2023-03-16T12:26:48;75980.06;;;-143.60;41.89
68329;BME280;55182;56.864;60.554;2023-03-16T12:37:05;75957.97;;;-143.60;42.17
68329;BME280;55182;56.864;60.554;2023-03-16T12:39:39;75937.88;;;-143.60;42.19
68329;BME280;55182;56.864;60.554;2023-03-16T12:42:14;75929.81;;;-143.60;42.21
68329;BME280;55182;56.864;60.554;2023-03-16T12:44:56;75881.59;;;-143.60;41.98
68329;BME280;55182;56.864;60.554;2023-03-16T12:47:37;75841.41;;;-143.60;40.78
68329;BME280;55182;56.864;60.554;2023-03-16T12:50:09;75857.50;;;-143.60;41.60
68329;BME280;55182;56.864;60.554;2023-03-16T12:52:39;75893.66;;;-143.60;41.87
68329;BME280;55182;56.864;60.554;2023-03-16T12:57:50;75945.91;;;-143.60;42.22
68329;BME280;55182;56.864;60.554;2023-03-16T13:00:31;75957.97;;;-143.60;42.44
68329;BME280;55182;56.864;60.554;2023-03-16T13:02:57;75959.97;;;-143.60;42.54
68329;BME280;55182;56.864;60.554;2023-03-16T13:05:30;75957.97;;;-143.60;42.98
68329;BME280;55182;56.864;60.554;2023-03-16T13:08:04;75959.97;;;-143.60;42.71
68329;BME280;55182;56.864;60.554;2023-03-16T13:10:31;75957.97;;;-143.60;42.01
68329;BME280;55182;56.864;60.554;2023-03-16T13:13:05;75957.97;;;-143.60;41.95
68329;BME280;55182;56.864;60.554;2023-03-16T13:15:31;75953.94;;;-143.60;40.17
68329;BME280;55182;56.864;60.554;2023-03-16T13:18:04;75961.97;;;-143.60;39.57
68329;BME280;55182;56.864;60.554;2023-03-16T13:20:31;75957.97;;;-143.60;39.32
68329;BME280;55182;56.864;60.554;2023-03-16T13:23:18;75961.97;;;-143.60;38.60
68329;BME280;55182;56.864;60.554;2023-03-16T13:25:56;75959.97;;;-143.60;38.26
68329;BME280;55182;56.864;60.554;2023-03-16T13:28:22;75966.00;;;-143.60;37.97
68329;BME280;55182;56.864;60.554;2023-03-16T13:30:52;75966.00;;;-143.60;38.65
68329;BME280;55182;56.864;60.554;2023-03-16T13:33:20;75970.00;;;-143.60;37.71
68329;BME280;55182;56.864;60.554;2023-03-16T13:35:48;75976.03;;;-143.60;37.64
68329;BME280;55182;56.864;60.554;2023-03-16T13:38:15;75978.06;;;-143.60;37.75
68329;BME280;55182;56.864;60.554;2023-03-16T13:40:50;75984.09;;;-143.60;37.75
68329;BME280;55182;56.864;60.554;2023-03-16T13:43:17;75986.09;;;-143.60;37.55
68329;BME280;55182;56.864;60.554;2023-03-16T13:45:43;75996.13;;;-143.60;37.51
68329;BME280;55182;56.864;60.554;2023-03-16T13:48:13;75998.16;;;-143.60;37.81
68329;BME280;55182;56.864;60.554;2023-03-16T13:50:38;76000.16;;;-143.60;38.72